Time;durP1;ratioP1;P1;durP2;ratioP2;P2;SDS_P1;SDS_P2;PMS_P1;PMS_P2;Temp;Humidity;BMP_temperature;BMP_pressure;BME280_temperature;BME280_humidity;BME280_pressure;Samples;Min_cycle;Max_cycle;Signal;HPM_P1;HPM_P2
2022/04/20 00:01:00;;;;;;;130.15;44.22;;;;;;;;;;6261918;28;20053;-61
2022/04/20 00:04:00;;;;;;;122.95;41.75;;;;;;;;;;6263224;28;20190;-59
2022/04/20 00:07:01;;;;;;;115.03;41.67;;;;;;;;;;6259171;28;20041;-63
2022/04/20 00:10:02;;;;;;;126.53;41.63;;;;;;;;;;6252500;28;20091;-64
2022/04/20 00:13:03;;;;;;;113.82;41.10;;;;;;;;;;6262353;28;20045;-65
2022/04/20 00:16:04;;;;;;;119.13;42.22;;;;;;;;;;6262426;28;20048;-63
2022/04/20 00:19:05;;;;;;;119.40;44.60;;;;;;;;;;6263014;28;20080;-65
2022/04/20 00:22:05;;;;;;;115.88;41.72;;;;;;;;;;6261996;28;20056;-65
2022/04/20 00:25:06;;;;;;;109.65;38.67;;;;;;;;;;6261605;28;20147;-65
2022/04/20 00:28:07;;;;;;;87.47;32.95;;;;;;;;;;6264637;28;20049;-63
2022/04/20 00:31:08;;;;;;;94.15;32.38;;;;;;;;;;6265825;28;20124;-65
2022/04/20 00:34:08;;;;;;;103.85;35.92;;;;;;;;;;6266002;28;20077;-64
2022/04/20 00:37:09;;;;;;;103.32;36.72;;;;;;;;;;6263947;28;20519;-63
2022/04/20 00:40:11;;;;;;;106.90;36.33;;;;;;;;;;6267750;28;20052;-62
2022/04/20 00:43:12;;;;;;;115.80;36.97;;;;;;;;;;6268686;28;20186;-61
2022/04/20 00:46:14;;;;;;;107.70;36.10;;;;;;;;;;6267086;28;20056;-62
2022/04/20 00:49:16;;;;;;;98.50;33.60;;;;;;;;;;6266436;28;20049;-64
2022/04/20 00:52:17;;;;;;;90.38;33.50;;;;;;;;;;6266864;28;20041;-61
2022/04/20 00:55:17;;;;;;;93.03;31.88;;;;;;;;;;6267461;28;20519;-66
2022/04/20 00:58:18;;;;;;;93.75;34.63;;;;;;;;;;6265625;28;20095;-65
2022/04/20 01:01:19;;;;;;;98.65;34.20;;;;;;;;;;6269344;28;20045;-65
2022/04/20 01:04:20;;;;;;;99.50;33.97;;;;;;;;;;6267114;28;20053;-65
2022/04/20 01:07:22;;;;;;;105.25;35.47;;;;;;;;;;6264070;28;20136;-66
2022/04/20 01:10:22;;;;;;;111.72;39.33;;;;;;;;;;6268468;28;20561;-61
2022/04/20 01:13:24;;;;;;;115.70;39.13;;;;;;;;;;6265873;28;20076;-58
2022/04/20 01:16:24;;;;;;;111.32;39.33;;;;;;;;;;6267849;28;20369;-61
2022/04/20 01:19:32;;;;;;;121.75;42.80;;;;;;;;;;6267539;28;20108;-60
2022/04/20 01:22:33;;;;;;;111.72;39.25;;;;;;;;;;6267515;28;20072;-63
2022/04/20 01:25:33;;;;;;;116.00;39.35;;;;;;;;;;6266955;28;20049;-64
2022/04/20 01:28:42;;;;;;;114.82;39.75;;;;;;;;;;6266147;28;20545;-65
2022/04/20 01:31:43;;;;;;;120.53;37.38;;;;;;;;;;6265572;28;20068;-62
2022/04/20 01:34:44;;;;;;;118.90;39.03;;;;;;;;;;6265659;28;20057;-64
2022/04/20 01:37:44;;;;;;;102.00;35.55;;;;;;;;;;6265266;28;20061;-64
2022/04/20 01:40:45;;;;;;;112.68;37.50;;;;;;;;;;6266320;28;20048;-63
2022/04/20 01:43:45;;;;;;;116.85;40.17;;;;;;;;;;6265806;28;20412;-63
2022/04/20 01:46:46;;;;;;;123.30;41.47;;;;;;;;;;6264383;28;20055;-64
2022/04/20 01:49:46;;;;;;;127.63;43.13;;;;;;;;;;6265308;28;20187;-62
2022/04/20 01:52:48;;;;;;;114.15;39.45;;;;;;;;;;6265344;28;20416;-63
2022/04/20 01:55:48;;;;;;;121.93;40.17;;;;;;;;;;6265599;28;20057;-63
2022/04/20 01:58:49;;;;;;;117.75;42.00;;;;;;;;;;6263067;28;20062;-62
2022/04/20 02:05:11;;;;;;;122.50;40.38;;;;;;;;;;6266610;28;20052;-63
2022/04/20 02:08:11;;;;;;;126.55;41.70;;;;;;;;;;6263868;28;20049;-65
2022/04/20 02:11:12;;;;;;;134.85;42.72;;;;;;;;;;6266073;28;20098;-61
2022/04/20 02:14:13;;;;;;;128.85;43.80;;;;;;;;;;6266969;28;20055;-62
2022/04/20 02:17:13;;;;;;;126.65;43.45;;;;;;;;;;6264679;28;20061;-65
2022/04/20 02:20:14;;;;;;;118.03;41.88;;;;;;;;;;6265687;28;20487;-65
2022/04/20 02:23:15;;;;;;;132.43;42.60;;;;;;;;;;6265439;28;20715;-64
2022/04/20 02:26:15;;;;;;;124.00;40.22;;;;;;;;;;6266936;28;20533;-64
2022/04/20 02:29:16;;;;;;;126.72;40.75;;;;;;;;;;6264320;28;20041;-63
2022/04/20 02:32:17;;;;;;;123.85;41.67;;;;;;;;;;6266151;28;20037;-63
2022/04/20 02:35:17;;;;;;;133.80;44.05;;;;;;;;;;6266390;28;20190;-65
2022/04/20 02:38:19;;;;;;;129.57;42.08;;;;;;;;;;6262524;28;20135;-65
2022/04/20 02:41:20;;;;;;;130.57;42.22;;;;;;;;;;6262924;28;20082;-62
2022/04/20 02:44:21;;;;;;;127.43;42.47;;;;;;;;;;6264892;28;20908;-65
2022/04/20 02:47:21;;;;;;;123.78;42.67;;;;;;;;;;6261658;28;20045;-62
2022/04/20 02:50:22;;;;;;;135.88;44.83;;;;;;;;;;6261453;28;20092;-59
2022/04/20 02:53:23;;;;;;;130.85;43.47;;;;;;;;;;6263474;28;20476;-64
2022/04/20 02:56:23;;;;;;;128.32;42.20;;;;;;;;;;6265424;28;20140;-61
2022/04/20 02:59:24;;;;;;;146.43;46.97;;;;;;;;;;6263641;28;20049;-64
2022/04/20 03:02:24;;;;;;;124.85;40.88;;;;;;;;;;6265448;28;20541;-63
2022/04/20 03:05:25;;;;;;;129.07;42.55;;;;;;;;;;6264924;28;20059;-65
2022/04/20 03:08:26;;;;;;;132.98;45.53;;;;;;;;;;6261082;28;20053;-66
2022/04/20 03:11:27;;;;;;;136.40;44.57;;;;;;;;;;6264653;28;20071;-66
2022/04/20 03:14:27;;;;;;;134.20;45.85;;;;;;;;;;6263991;28;20363;-65
2022/04/20 03:17:28;;;;;;;141.20;47.97;;;;;;;;;;6264599;28;20041;-66
2022/04/20 03:20:29;;;;;;;135.13;44.60;;;;;;;;;;6264078;28;20068;-65
2022/04/20 03:23:30;;;;;;;125.75;45.17;;;;;;;;;;6262910;28;20049;-66
2022/04/20 03:26:30;;;;;;;125.53;42.92;;;;;;;;;;6264937;28;20049;-67
2022/04/20 03:29:31;;;;;;;127.25;44.92;;;;;;;;;;6263841;28;20140;-67
2022/04/20 03:32:32;;;;;;;141.02;46.58;;;;;;;;;;6263979;28;20092;-67
2022/04/20 03:35:32;;;;;;;144.25;49.42;;;;;;;;;;6265928;28;20159;-62
2022/04/20 03:38:33;;;;;;;147.88;50.88;;;;;;;;;;6263401;28;20441;-66
2022/04/20 03:41:34;;;;;;;148.45;52.63;;;;;;;;;;6265421;28;20064;-66
2022/04/20 03:44:35;;;;;;;148.60;51.88;;;;;;;;;;6264434;28;20491;-65
2022/04/20 03:47:35;;;;;;;144.48;50.55;;;;;;;;;;6263592;28;20106;-66
2022/04/20 03:50:36;;;;;;;142.13;51.88;;;;;;;;;;6261192;28;20703;-65
2022/04/20 03:53:37;;;;;;;156.43;53.70;;;;;;;;;;6261038;28;20076;-62
2022/04/20 03:59:57;;;;;;;157.20;52.13;;;;;;;;;;6258183;28;20090;-65
2022/04/20 04:02:57;;;;;;;142.95;51.20;;;;;;;;;;6267976;28;20053;-64
2022/04/20 04:05:58;;;;;;;157.75;51.50;;;;;;;;;;6268921;28;20048;-64
2022/04/20 04:08:59;;;;;;;167.23;53.75;;;;;;;;;;6264297;28;20144;-63
2022/04/20 04:11:59;;;;;;;161.00;54.53;;;;;;;;;;6267738;28;20056;-65
2022/04/20 04:15:00;;;;;;;170.35;55.30;;;;;;;;;;6266496;28;20045;-65
2022/04/20 04:18:02;;;;;;;154.52;52.60;;;;;;;;;;6267796;28;20054;-65
2022/04/20 04:21:02;;;;;;;168.07;54.60;;;;;;;;;;6267945;28;20041;-64
2022/04/20 04:24:08;;;;;;;153.95;55.55;;;;;;;;;;6268187;28;20056;-65
2022/04/20 04:27:10;;;;;;;174.75;55.10;;;;;;;;;;6267690;28;20045;-65
2022/04/20 04:30:11;;;;;;;173.02;55.35;;;;;;;;;;6266807;28;20138;-63
2022/04/20 04:33:11;;;;;;;171.23;58.85;;;;;;;;;;6253947;28;20049;-65
2022/04/20 04:36:12;;;;;;;164.10;55.35;;;;;;;;;;6264898;28;20049;-64
2022/04/20 04:39:17;;;;;;;192.43;60.13;;;;;;;;;;6264593;28;20125;-64
2022/04/20 04:42:18;;;;;;;174.48;57.13;;;;;;;;;;6266301;28;20076;-65
2022/04/20 04:48:39;;;;;;;178.25;55.80;;;;;;;;;;6266500;28;20100;-65
2022/04/20 04:51:39;;;;;;;170.50;54.80;;;;;;;;;;6262779;28;20507;-65
2022/04/20 04:54:40;;;;;;;163.15;52.78;;;;;;;;;;6264217;28;20041;-67
2022/04/20 04:57:40;;;;;;;179.98;57.15;;;;;;;;;;6264454;28;20190;-66
2022/04/20 05:00:41;;;;;;;165.40;54.83;;;;;;;;;;6264525;28;20132;-63
2022/04/20 05:03:42;;;;;;;195.88;60.47;;;;;;;;;;6264777;28;20149;-64
2022/04/20 05:06:44;;;;;;;234.60;76.68;;;;;;;;;;6250060;28;20543;-65
2022/04/20 05:09:44;;;;;;;226.88;74.93;;;;;;;;;;6267992;28;20447;-66
2022/04/20 05:12:45;;;;;;;220.85;75.00;;;;;;;;;;6267664;28;20045;-65
2022/04/20 05:15:45;;;;;;;198.93;69.63;;;;;;;;;;6266992;28;20589;-66
2022/04/20 05:18:46;;;;;;;201.48;69.82;;;;;;;;;;6265244;28;20063;-65
2022/04/20 05:21:47;;;;;;;208.35;69.38;;;;;;;;;;6263805;28;20136;-64
2022/04/20 05:24:47;;;;;;;186.82;63.80;;;;;;;;;;6264484;28;20450;-66
2022/04/20 05:27:48;;;;;;;198.77;65.60;;;;;;;;;;6264334;28;20411;-58
2022/04/20 05:30:49;;;;;;;192.73;63.22;;;;;;;;;;6264397;28;20438;-60
2022/04/20 05:33:49;;;;;;;186.07;59.10;;;;;;;;;;6265727;28;20053;-66
2022/04/20 05:43:28;;;;;;;284.95;77.50;;;;;;;;;;6262598;28;20120;-64
2022/04/20 05:46:30;;;;;;;282.08;81.53;;;;;;;;;;6266073;28;20060;-63
2022/04/20 05:49:31;;;;;;;257.95;81.70;;;;;;;;;;6265036;28;20095;-65
2022/04/20 05:52:31;;;;;;;274.00;88.05;;;;;;;;;;6263057;28;20037;-62
2022/04/20 05:55:32;;;;;;;292.95;97.65;;;;;;;;;;6264562;28;20479;-62
2022/04/20 05:58:33;;;;;;;271.17;91.65;;;;;;;;;;6263445;28;20083;-61
2022/04/20 06:01:35;;;;;;;277.08;89.95;;;;;;;;;;6262920;28;20053;-61
2022/04/20 06:04:36;;;;;;;247.10;84.15;;;;;;;;;;6264492;28;20067;-63
2022/04/20 06:07:37;;;;;;;237.98;81.95;;;;;;;;;;6263162;28;20052;-65
2022/04/20 06:10:37;;;;;;;224.20;78.80;;;;;;;;;;6264966;28;20091;-65
2022/04/20 06:13:38;;;;;;;232.80;79.38;;;;;;;;;;6262856;28;20041;-65
2022/04/20 06:16:39;;;;;;;212.45;76.45;;;;;;;;;;6264895;28;20136;-63
2022/04/20 06:19:40;;;;;;;222.43;83.15;;;;;;;;;;6264032;28;20047;-62
2022/04/20 06:22:40;;;;;;;218.25;77.57;;;;;;;;;;6261753;28;20132;-61
2022/04/20 06:25:42;;;;;;;225.38;77.97;;;;;;;;;;6266130;28;20037;-64
2022/04/20 06:28:43;;;;;;;216.20;76.03;;;;;;;;;;6264928;28;20053;-66
2022/04/20 06:31:45;;;;;;;214.15;72.60;;;;;;;;;;6264198;28;20049;-63
2022/04/20 06:34:46;;;;;;;;;;;;;;;;;;6265012;28;20113;-63
2022/04/20 06:37:48;;;;;;;203.20;70.22;;;;;;;;;;6266035;28;19924;-62
2022/04/20 06:40:49;;;;;;;200.68;70.40;;;;;;;;;;6265271;28;20131;-67
2022/04/20 06:43:49;;;;;;;200.38;70.78;;;;;;;;;;6264239;28;20044;-63
2022/04/20 06:46:50;;;;;;;208.30;70.70;;;;;;;;;;6265624;28;20132;-60
2022/04/20 06:49:52;;;;;;;211.48;74.38;;;;;;;;;;6261135;28;20067;-66
2022/04/20 06:59:31;;;;;;;214.50;77.15;;;;;;;;;;6263428;28;20098;-64
2022/04/20 07:02:32;;;;;;;208.55;71.15;;;;;;;;;;6263986;28;20495;-65
2022/04/20 07:05:33;;;;;;;209.02;74.57;;;;;;;;;;6261910;28;20051;-63
2022/04/20 07:08:34;;;;;;;203.05;72.40;;;;;;;;;;6263451;28;20053;-65
2022/04/20 07:11:35;;;;;;;205.10;75.63;;;;;;;;;;6263428;28;20103;-67
2022/04/20 07:14:35;;;;;;;197.10;71.00;;;;;;;;;;6260030;28;20045;-64
2022/04/20 07:17:36;;;;;;;191.35;70.93;;;;;;;;;;6263797;28;20552;-64
2022/04/20 07:20:37;;;;;;;185.40;67.20;;;;;;;;;;6262739;28;20094;-64
2022/04/20 07:23:38;;;;;;;183.43;67.75;;;;;;;;;;6261455;28;20124;-60
2022/04/20 07:26:38;;;;;;;190.60;68.30;;;;;;;;;;6264200;28;20051;-67
2022/04/20 07:29:39;;;;;;;182.23;67.05;;;;;;;;;;6264153;28;20048;-66
2022/04/20 07:32:39;;;;;;;177.85;63.72;;;;;;;;;;6261168;28;20064;-64
2022/04/20 07:35:40;;;;;;;171.35;63.85;;;;;;;;;;6263520;28;20514;-63
2022/04/20 07:38:41;;;;;;;176.35;62.75;;;;;;;;;;6263295;28;20053;-65
2022/04/20 07:41:42;;;;;;;170.43;59.00;;;;;;;;;;6263157;28;20052;-65
2022/04/20 07:44:43;;;;;;;175.27;64.53;;;;;;;;;;6262602;28;20052;-64
2022/04/20 07:47:44;;;;;;;156.50;58.75;;;;;;;;;;6261888;28;20415;-63
2022/04/20 07:50:46;;;;;;;165.02;59.45;;;;;;;;;;6262435;28;20056;-60
2022/04/20 07:53:46;;;;;;;162.43;60.17;;;;;;;;;;6263153;28;20053;-66
2022/04/20 07:56:47;;;;;;;161.77;60.13;;;;;;;;;;6262509;28;20297;-65
2022/04/20 07:59:47;;;;;;;152.07;55.50;;;;;;;;;;6264249;28;20055;-65
2022/04/20 08:02:49;;;;;;;148.88;59.28;;;;;;;;;;6261685;28;20107;-66
2022/04/20 08:05:54;;;;;;;148.70;54.72;;;;;;;;;;6263537;28;20045;-66
2022/04/20 08:08:55;;;;;;;149.23;54.42;;;;;;;;;;6264957;28;20786;-65
2022/04/20 08:11:55;;;;;;;135.90;52.70;;;;;;;;;;6262293;28;20079;-64
2022/04/20 08:14:56;;;;;;;143.63;52.35;;;;;;;;;;6265708;28;20055;-66
2022/04/20 08:17:56;;;;;;;134.90;53.00;;;;;;;;;;6264346;28;20049;-64
2022/04/20 08:20:57;;;;;;;128.57;49.40;;;;;;;;;;6263408;28;20484;-66
2022/04/20 08:23:57;;;;;;;129.18;50.28;;;;;;;;;;6261109;28;20539;-65
2022/04/20 08:26:58;;;;;;;129.25;50.17;;;;;;;;;;6262497;28;20385;-65
2022/04/20 08:29:58;;;;;;;118.72;48.70;;;;;;;;;;6263862;28;20610;-63
2022/04/20 08:32:59;;;;;;;111.65;45.13;;;;;;;;;;6260422;28;20049;-66
2022/04/20 08:36:00;;;;;;;116.78;47.67;;;;;;;;;;6262392;28;20056;-65
2022/04/20 08:39:01;;;;;;;115.53;45.78;;;;;;;;;;6259445;28;20072;-65
2022/04/20 08:42:02;;;;;;;110.05;43.60;;;;;;;;;;6255232;28;20056;-66
2022/04/20 08:45:04;;;;;;;102.10;41.85;;;;;;;;;;6259861;28;20159;-65
2022/04/20 08:48:06;;;;;;;101.00;41.20;;;;;;;;;;6263554;28;20444;-64
2022/04/20 08:51:07;;;;;;;97.55;41.30;;;;;;;;;;6266719;28;20064;-65
2022/04/20 08:54:07;;;;;;;89.75;37.88;;;;;;;;;;6264689;28;20460;-63
2022/04/20 08:57:19;;;;;;;87.90;39.08;;;;;;;;;;6268484;28;20051;-65
2022/04/20 09:00:26;;;;;;;82.43;34.93;;;;;;;;;;6267080;28;20148;-64
2022/04/20 09:03:28;;;;;;;94.82;40.55;;;;;;;;;;6265857;28;20052;-66
2022/04/20 09:06:28;;;;;;;82.85;35.10;;;;;;;;;;6264071;28;20116;-62
2022/04/20 09:09:30;;;;;;;77.88;37.40;;;;;;;;;;6266832;28;20052;-65
2022/04/20 09:12:30;;;;;;;80.72;32.72;;;;;;;;;;6265422;28;20399;-61
2022/04/20 09:15:33;;;;;;;69.97;31.80;;;;;;;;;;6266005;28;20132;-62
2022/04/20 09:18:35;;;;;;;72.53;30.45;;;;;;;;;;6267555;28;20095;-62
2022/04/20 09:21:36;;;;;;;68.60;31.05;;;;;;;;;;6267061;28;20084;-64
2022/04/20 09:24:37;;;;;;;65.70;29.23;;;;;;;;;;6262976;28;20045;-62
2022/04/20 09:27:40;;;;;;;74.93;30.83;;;;;;;;;;6267853;28;20049;-64
2022/04/20 09:30:42;;;;;;;68.80;30.10;;;;;;;;;;6264491;28;20408;-64
2022/04/20 09:33:50;;;;;;;67.78;29.83;;;;;;;;;;6261527;28;20110;-60
2022/04/20 09:36:51;;;;;;;65.07;28.92;;;;;;;;;;6264111;28;20053;-59
2022/04/20 09:39:52;;;;;;;65.05;29.33;;;;;;;;;;6266596;28;20049;-59
2022/04/20 09:43:13;;;;;;;64.88;28.88;;;;;;;;;;6265880;28;20434;-67
2022/04/20 09:49:33;;;;;;;66.28;29.67;;;;;;;;;;6265354;28;20049;-65
2022/04/20 09:52:41;;;;;;;60.53;28.00;;;;;;;;;;6266950;28;20076;-66
2022/04/20 09:55:42;;;;;;;59.53;26.38;;;;;;;;;;6265720;28;20314;-67
2022/04/20 09:58:46;;;;;;;63.90;26.75;;;;;;;;;;6264258;28;20611;-64
2022/04/20 10:01:47;;;;;;;54.42;26.27;;;;;;;;;;6265679;28;20049;-63
2022/04/20 10:04:48;;;;;;;60.75;26.55;;;;;;;;;;6266094;28;20084;-64
2022/04/20 10:07:51;;;;;;;55.60;24.98;;;;;;;;;;6265507;28;20049;-62
2022/04/20 10:10:55;;;;;;;47.65;22.25;;;;;;;;;;6264921;28;20048;-65
2022/04/20 10:17:21;;;;;;;42.75;21.33;;;;;;;;;;6263620;28;20057;-67
2022/04/20 10:20:25;;;;;;;43.15;17.40;;;;;;;;;;6262523;28;20048;-66
2022/04/20 10:23:29;;;;;;;45.65;19.30;;;;;;;;;;6263587;28;20045;-66
2022/04/20 10:26:29;;;;;;;39.72;19.63;;;;;;;;;;6252248;28;20052;-66
2022/04/20 10:29:57;;;;;;;36.65;17.55;;;;;;;;;;6263894;28;20072;-64
2022/04/20 10:33:13;;;;;;;39.05;18.77;;;;;;;;;;6266269;28;20060;-66
2022/04/20 10:36:16;;;;;;;42.05;19.17;;;;;;;;;;6259170;28;20045;-66
2022/04/20 10:39:22;;;;;;;33.08;16.58;;;;;;;;;;6266205;28;20052;-67
2022/04/20 10:42:23;;;;;;;42.70;18.60;;;;;;;;;;6262821;28;20427;-64
2022/04/20 10:45:24;;;;;;;37.83;18.95;;;;;;;;;;6262574;28;20139;-65
2022/04/20 10:48:25;;;;;;;30.30;14.48;;;;;;;;;;6262749;28;20111;-63
2022/04/20 10:51:34;;;;;;;31.75;15.02;;;;;;;;;;6262774;28;20051;-62
2022/04/20 10:54:49;;;;;;;29.23;15.32;;;;;;;;;;6263057;28;20068;-65
2022/04/20 10:57:54;;;;;;;30.55;15.18;;;;;;;;;;6263714;28;20527;-66
2022/04/20 11:01:09;;;;;;;29.40;14.88;;;;;;;;;;6266779;28;20048;-66
2022/04/20 11:04:10;;;;;;;30.83;15.35;;;;;;;;;;6258138;28;20571;-65
2022/04/20 11:07:32;;;;;;;30.67;14.70;;;;;;;;;;6265172;28;20049;-65
2022/04/20 11:10:34;;;;;;;30.10;14.15;;;;;;;;;;6260734;28;20093;-64
2022/04/20 11:20:25;;;;;;;33.50;14.75;;;;;;;;;;6264830;28;20092;-65
2022/04/20 11:23:47;;;;;;;28.48;14.02;;;;;;;;;;6263440;28;20515;-66
2022/04/20 11:26:51;;;;;;;;;;;;;;;;;;6264883;28;20049;-66
2022/04/20 11:29:52;;;;;;;29.50;14.85;;;;;;;;;;6261867;28;19924;-65
2022/04/20 11:32:53;;;;;;;29.98;14.80;;;;;;;;;;6263242;28;20506;-65
2022/04/20 11:35:57;;;;;;;27.80;14.50;;;;;;;;;;6263498;28;20052;-65
2022/04/20 11:39:00;;;;;;;29.13;15.40;;;;;;;;;;6260679;28;20484;-66
2022/04/20 11:42:04;;;;;;;32.10;14.93;;;;;;;;;;6265359;28;20052;-63
2022/04/20 11:45:06;;;;;;;33.00;16.15;;;;;;;;;;6263449;28;20068;-65
2022/04/20 11:48:07;;;;;;;26.35;14.30;;;;;;;;;;6262464;28;20076;-65
2022/04/20 11:51:08;;;;;;;31.00;15.70;;;;;;;;;;6262673;28;20063;-66
2022/04/20 11:54:09;;;;;;;28.98;15.50;;;;;;;;;;6263537;28;20090;-65
2022/04/20 11:57:10;;;;;;;30.17;15.20;;;;;;;;;;6264874;28;20045;-67
2022/04/20 12:00:11;;;;;;;29.55;15.07;;;;;;;;;;6263721;28;20144;-64
2022/04/20 12:03:12;;;;;;;27.98;15.10;;;;;;;;;;6247820;28;20821;-65
2022/04/20 12:06:13;;;;;;;31.00;15.98;;;;;;;;;;6264037;28;20076;-65
2022/04/20 12:09:14;;;;;;;27.70;14.90;;;;;;;;;;6259541;28;20513;-64
2022/04/20 12:12:18;;;;;;;28.58;15.25;;;;;;;;;;6263351;28;20106;-63
2022/04/20 12:15:20;;;;;;;26.55;14.25;;;;;;;;;;6262229;28;20041;-64
2022/04/20 12:18:21;;;;;;;30.02;15.35;;;;;;;;;;6262214;28;20056;-66
2022/04/20 12:21:54;;;;;;;27.52;14.88;;;;;;;;;;6265970;28;20041;-64
2022/04/20 12:25:11;;;;;;;27.90;15.20;;;;;;;;;;6246369;28;20089;-64
2022/04/20 12:31:31;;;;;;;29.17;16.15;;;;;;;;;;6266972;28;21077;-67
2022/04/20 12:34:32;;;;;;;28.23;14.90;;;;;;;;;;6268103;28;20053;-64
2022/04/20 12:37:33;;;;;;;32.20;17.17;;;;;;;;;;6269287;28;20388;-62
2022/04/20 12:40:36;;;;;;;30.88;15.82;;;;;;;;;;6269152;28;20120;-70
2022/04/20 12:43:37;;;;;;;26.77;14.73;;;;;;;;;;6266467;28;20045;-64
2022/04/20 12:46:37;;;;;;;28.58;15.55;;;;;;;;;;6264190;28;20060;-62
2022/04/20 12:49:38;;;;;;;26.73;15.10;;;;;;;;;;6270150;28;20159;-64
2022/04/20 12:52:49;;;;;;;29.42;15.35;;;;;;;;;;6269763;28;20079;-66
2022/04/20 13:02:27;;;;;;;29.58;16.00;;;;;;;;;;6257698;28;20511;-65
2022/04/20 13:05:29;;;;;;;28.63;15.50;;;;;;;;;;6259536;28;20049;-63
2022/04/20 13:08:29;;;;;;;27.15;15.45;;;;;;;;;;6258688;28;20052;-63
2022/04/20 13:11:30;;;;;;;32.88;17.33;;;;;;;;;;6255269;28;20067;-64
2022/04/20 13:14:31;;;;;;;28.63;15.68;;;;;;;;;;6259839;28;20152;-66
2022/04/20 13:17:31;;;;;;;29.17;16.10;;;;;;;;;;6260275;28;20048;-66
2022/04/20 13:20:32;;;;;;;30.23;16.75;;;;;;;;;;6259250;28;20148;-63
2022/04/20 13:23:33;;;;;;;35.97;16.73;;;;;;;;;;6259226;28;20056;-62
2022/04/20 13:29:53;;;;;;;32.08;16.98;;;;;;;;;;6257266;28;20427;-59
2022/04/20 13:32:56;;;;;;;32.10;17.77;;;;;;;;;;6258269;28;20165;-62
2022/04/20 13:35:57;;;;;;;32.78;17.70;;;;;;;;;;6257187;28;20064;-60
2022/04/20 13:38:58;;;;;;;32.45;16.75;;;;;;;;;;6258944;28;20128;-60
2022/04/20 13:41:59;;;;;;;34.67;18.73;;;;;;;;;;6258519;28;20052;-61
2022/04/20 13:45:00;;;;;;;30.00;17.63;;;;;;;;;;6259101;28;20085;-65
2022/04/20 13:48:01;;;;;;;31.67;16.85;;;;;;;;;;6259382;28;20565;-63
2022/04/20 13:51:02;;;;;;;31.20;17.13;;;;;;;;;;6258093;28;20057;-63
2022/04/20 13:54:04;;;;;;;33.88;18.10;;;;;;;;;;6257145;28;20709;-64
2022/04/20 13:57:04;;;;;;;36.05;17.80;;;;;;;;;;6256057;28;20049;-62
2022/04/20 14:00:12;;;;;;;35.72;17.52;;;;;;;;;;6251002;28;20052;-59
2022/04/20 14:03:12;;;;;;;31.17;18.00;;;;;;;;;;6258171;28;20123;-61
2022/04/20 14:06:14;;;;;;;30.50;16.88;;;;;;;;;;6256817;28;20146;-63
2022/04/20 14:09:15;;;;;;;30.95;16.73;;;;;;;;;;6256274;28;20049;-65
2022/04/20 14:12:17;;;;;;;29.90;16.23;;;;;;;;;;6259257;28;20510;-62
2022/04/20 14:15:17;;;;;;;32.75;16.48;;;;;;;;;;6257541;28;20083;-62
2022/04/20 14:18:18;;;;;;;33.33;17.77;;;;;;;;;;6257765;28;20075;-61
2022/04/20 14:21:19;;;;;;;29.58;16.35;;;;;;;;;;6256594;28;20067;-62
2022/04/20 14:24:20;;;;;;;31.15;16.10;;;;;;;;;;6255382;28;20068;-61
2022/04/20 14:33:59;;;;;;;28.90;16.45;;;;;;;;;;6257675;28;20064;-60
2022/04/20 14:37:00;;;;;;;33.20;17.63;;;;;;;;;;6254833;28;20048;-62
2022/04/20 14:40:00;;;;;;;30.20;16.20;;;;;;;;;;6252326;28;20076;-60
2022/04/20 14:43:01;;;;;;;30.15;15.77;;;;;;;;;;6257575;28;20083;-67
2022/04/20 14:46:01;;;;;;;32.22;16.38;;;;;;;;;;6257116;28;20067;-63
2022/04/20 14:49:03;;;;;;;35.58;18.20;;;;;;;;;;6255238;28;20614;-61
2022/04/20 14:52:09;;;;;;;32.75;17.45;;;;;;;;;;6258383;28;20685;-57
2022/04/20 14:55:10;;;;;;;31.58;18.10;;;;;;;;;;6257895;28;20460;-61
2022/04/20 14:58:10;;;;;;;31.50;16.25;;;;;;;;;;6256975;28;20053;-62
2022/04/20 15:01:13;;;;;;;32.20;16.90;;;;;;;;;;6255875;28;20052;-59
2022/04/20 15:04:15;;;;;;;28.15;16.63;;;;;;;;;;6254833;28;20523;-58
2022/04/20 15:07:15;;;;;;;28.92;16.38;;;;;;;;;;6253738;28;20049;-62
2022/04/20 15:10:16;;;;;;;28.45;16.63;;;;;;;;;;6253355;28;20048;-61
2022/04/20 15:13:20;;;;;;;29.77;17.42;;;;;;;;;;6256164;28;20053;-62
2022/04/20 15:16:21;;;;;;;30.02;16.85;;;;;;;;;;6240873;28;20144;-63
2022/04/20 15:19:22;;;;;;;31.17;16.75;;;;;;;;;;6255118;28;20542;-63
2022/04/20 15:22:23;;;;;;;30.95;17.58;;;;;;;;;;6257706;28;20143;-60
2022/04/20 15:25:24;;;;;;;28.65;16.98;;;;;;;;;;6257982;28;20051;-63
2022/04/20 15:28:25;;;;;;;35.15;18.85;;;;;;;;;;6253981;28;20082;-61
2022/04/20 15:31:26;;;;;;;28.25;16.27;;;;;;;;;;6253683;28;20060;-61
2022/04/20 15:34:26;;;;;;;28.73;17.42;;;;;;;;;;6253578;28;20837;-62
2022/04/20 15:37:27;;;;;;;31.38;17.70;;;;;;;;;;6255684;28;20074;-60
2022/04/20 15:40:28;;;;;;;30.45;16.35;;;;;;;;;;6250420;28;20052;-61
2022/04/20 15:43:35;;;;;;;29.05;16.27;;;;;;;;;;6252884;28;20052;-62
2022/04/20 15:46:36;;;;;;;28.92;16.58;;;;;;;;;;6255554;28;20160;-61
2022/04/20 15:49:36;;;;;;;30.48;16.85;;;;;;;;;;6251324;28;20056;-58
2022/04/20 15:52:37;;;;;;;28.48;16.60;;;;;;;;;;6255917;28;20160;-62
2022/04/20 16:02:17;;;;;;;30.92;17.33;;;;;;;;;;6261412;28;20064;-61
2022/04/20 16:05:19;;;;;;;32.10;17.85;;;;;;;;;;6263291;28;20760;-60
2022/04/20 16:08:20;;;;;;;30.92;17.30;;;;;;;;;;6262180;28;20045;-63
2022/04/20 16:11:21;;;;;;;29.70;17.17;;;;;;;;;;6258871;28;20077;-63
2022/04/20 16:14:24;;;;;;;30.70;16.58;;;;;;;;;;6262063;28;20049;-60
2022/04/20 16:17:24;;;;;;;29.15;16.95;;;;;;;;;;6259495;28;20060;-60
2022/04/20 16:20:25;;;;;;;33.85;19.08;;;;;;;;;;6256494;28;20053;-63
2022/04/20 16:23:26;;;;;;;28.92;16.92;;;;;;;;;;6256782;28;20067;-62
2022/04/20 16:26:27;;;;;;;31.85;18.60;;;;;;;;;;6258913;28;20563;-63
2022/04/20 16:29:28;;;;;;;33.40;19.25;;;;;;;;;;6256480;28;20061;-63
2022/04/20 16:32:29;;;;;;;32.75;18.17;;;;;;;;;;6256039;28;20136;-62
2022/04/20 16:35:30;;;;;;;30.85;18.48;;;;;;;;;;6259484;28;20155;-62
2022/04/20 16:38:31;;;;;;;30.88;18.00;;;;;;;;;;6258647;28;20076;-63
2022/04/20 16:41:31;;;;;;;36.42;20.50;;;;;;;;;;6255796;28;20103;-61
2022/04/20 16:44:33;;;;;;;36.17;21.05;;;;;;;;;;6243853;28;20508;-63
2022/04/20 16:47:34;;;;;;;38.58;19.13;;;;;;;;;;6261017;28;20053;-63
2022/04/20 16:50:35;;;;;;;35.33;20.27;;;;;;;;;;6257060;28;20138;-62
2022/04/20 16:53:36;;;;;;;36.38;18.88;;;;;;;;;;6259962;28;20208;-63
2022/04/20 16:56:36;;;;;;;36.05;20.08;;;;;;;;;;6261069;28;20064;-60
2022/04/20 16:59:37;;;;;;;35.17;19.33;;;;;;;;;;6258002;28;20488;-64
2022/04/20 17:02:41;;;;;;;33.88;19.02;;;;;;;;;;6254857;28;20052;-59
2022/04/20 17:05:41;;;;;;;33.88;19.45;;;;;;;;;;6256509;28;20545;-61
2022/04/20 17:08:42;;;;;;;37.22;20.45;;;;;;;;;;6254585;28;20087;-61
2022/04/20 17:11:43;;;;;;;39.83;20.70;;;;;;;;;;6251682;28;20045;-64
2022/04/20 17:14:43;;;;;;;36.15;20.02;;;;;;;;;;6258814;28;20053;-63
2022/04/20 17:17:44;;;;;;;37.65;20.50;;;;;;;;;;6258470;28;20045;-62
2022/04/20 17:27:25;;;;;;;44.63;22.30;;;;;;;;;;6253373;28;20498;-63
2022/04/20 17:30:25;;;;;;;43.88;23.10;;;;;;;;;;6253434;28;20077;-62
2022/04/20 17:33:26;;;;;;;42.80;23.45;;;;;;;;;;6253869;28;20186;-62
2022/04/20 17:36:39;;;;;;;45.17;23.58;;;;;;;;;;6253634;28;20064;-62
2022/04/20 17:39:40;;;;;;;44.70;24.20;;;;;;;;;;6254237;28;20555;-61
2022/04/20 17:42:40;;;;;;;46.60;25.35;;;;;;;;;;6256516;28;20045;-62
2022/04/20 17:45:41;;;;;;;49.55;24.15;;;;;;;;;;6258503;28;20051;-60
2022/04/20 17:48:42;;;;;;;51.45;25.45;;;;;;;;;;6256953;28;20150;-62
2022/04/20 17:51:45;;;;;;;48.15;25.02;;;;;;;;;;6255028;28;20049;-61
2022/04/20 17:54:46;;;;;;;45.40;25.02;;;;;;;;;;6254183;28;20535;-63
2022/04/20 17:57:48;;;;;;;50.92;25.45;;;;;;;;;;6257599;28;20053;-62
2022/04/20 18:00:48;;;;;;;49.67;26.40;;;;;;;;;;6254319;28;20045;-61
2022/04/20 18:03:49;;;;;;;60.65;32.08;;;;;;;;;;6253444;28;20094;-62
2022/04/20 18:06:50;;;;;;;66.50;34.28;;;;;;;;;;6257891;28;20049;-62
2022/04/20 18:09:51;;;;;;;72.22;35.28;;;;;;;;;;6255382;28;20064;-62
2022/04/20 18:12:51;;;;;;;56.28;31.08;;;;;;;;;;6256740;28;20052;-62
2022/04/20 18:15:52;;;;;;;53.67;27.60;;;;;;;;;;6254345;28;20059;-62
2022/04/20 18:18:52;;;;;;;45.28;23.65;;;;;;;;;;6251224;28;20053;-59
2022/04/20 18:21:53;;;;;;;40.70;21.77;;;;;;;;;;6253594;28;20052;-62
2022/04/20 18:24:54;;;;;;;40.50;22.73;;;;;;;;;;6255812;28;21540;-62
2022/04/20 18:27:55;;;;;;;44.27;22.73;;;;;;;;;;6257900;28;20041;-62
2022/04/20 18:30:55;;;;;;;44.30;22.83;;;;;;;;;;6257074;28;20056;-62
2022/04/20 18:33:56;;;;;;;42.00;22.42;;;;;;;;;;6253742;28;20138;-62
2022/04/20 18:36:57;;;;;;;46.10;23.90;;;;;;;;;;6258376;28;20175;-62
2022/04/20 18:39:57;;;;;;;43.58;22.80;;;;;;;;;;6257184;28;20060;-60